sensor_id;sensor_type;location;lat;lon;timestamp;pressure;altitude;pressure_sealevel;temperature;humidity
5952;BME280;3001;42.622;23.194;2023-04-19T00:01:14;90869.69;;;13.67;84.12
5952;BME280;3001;42.622;23.194;2023-04-19T00:03:42;90870.59;;;13.59;84.22
5952;BME280;3001;42.622;23.194;2023-04-19T00:06:08;90869.50;;;13.72;84.07
5952;BME280;3001;42.622;23.194;2023-04-19T00:08:35;90869.06;;;13.58;84.17
5952;BME280;3001;42.622;23.194;2023-04-19T00:11:02;90862.53;;;13.64;83.54
5952;BME280;3001;42.622;23.194;2023-04-19T00:13:28;90873.63;;;13.73;83.70
5952;BME280;3001;42.622;23.194;2023-04-19T00:15:55;90863.19;;;13.61;84.04
5952;BME280;3001;42.622;23.194;2023-04-19T00:18:22;90868.16;;;13.66;83.71
5952;BME280;3001;42.622;23.194;2023-04-19T00:20:50;90860.34;;;13.66;83.36
5952;BME280;3001;42.622;23.194;2023-04-19T00:23:16;90853.41;;;13.58;83.33
5952;BME280;3001;42.622;23.194;2023-04-19T00:25:44;90858.84;;;13.53;83.71
5952;BME280;3001;42.622;23.194;2023-04-19T00:28:11;90861.69;;;13.48;84.01
5952;BME280;3001;42.622;23.194;2023-04-19T00:30:37;90858.97;;;13.45;84.06
5952;BME280;3001;42.622;23.194;2023-04-19T00:33:04;90864.16;;;13.57;83.80
5952;BME280;3001;42.622;23.194;2023-04-19T00:35:37;90856.13;;;13.62;83.32
5952;BME280;3001;42.622;23.194;2023-04-19T00:38:05;90860.56;;;13.61;83.36
5952;BME280;3001;42.622;23.194;2023-04-19T00:40:32;90856.44;;;13.60;83.74
5952;BME280;3001;42.622;23.194;2023-04-19T00:42:58;90868.50;;;13.53;83.50
5952;BME280;3001;42.622;23.194;2023-04-19T00:45:25;90859.59;;;13.54;83.70
5952;BME280;3001;42.622;23.194;2023-04-19T00:47:52;90859.81;;;13.49;84.20
5952;BME280;3001;42.622;23.194;2023-04-19T00:50:19;90853.19;;;13.39;84.23
5952;BME280;3001;42.622;23.194;2023-04-19T00:52:46;90860.72;;;13.41;83.96
5952;BME280;3001;42.622;23.194;2023-04-19T00:55:14;90857.66;;;13.39;84.23
5952;BME280;3001;42.622;23.194;2023-04-19T00:57:41;90856.16;;;13.38;84.13
5952;BME280;3001;42.622;23.194;2023-04-19T01:00:08;90856.69;;;13.31;84.27
5952;BME280;3001;42.622;23.194;2023-04-19T01:02:35;90850.94;;;13.38;83.80
5952;BME280;3001;42.622;23.194;2023-04-19T01:05:02;90848.22;;;13.34;84.17
5952;BME280;3001;42.622;23.194;2023-04-19T01:07:29;90854.06;;;13.43;83.79
5952;BME280;3001;42.622;23.194;2023-04-19T01:09:56;90848.63;;;13.36;83.82
5952;BME280;3001;42.622;23.194;2023-04-19T01:12:24;90852.56;;;13.30;83.95
5952;BME280;3001;42.622;23.194;2023-04-19T01:14:50;90843.00;;;13.34;83.93
5952;BME280;3001;42.622;23.194;2023-04-19T01:17:17;90844.50;;;13.35;83.84
5952;BME280;3001;42.622;23.194;2023-04-19T01:19:44;90839.28;;;13.35;83.53
5952;BME280;3001;42.622;23.194;2023-04-19T01:22:15;90839.41;;;13.39;82.90
5952;BME280;3001;42.622;23.194;2023-04-19T01:24:42;90846.78;;;13.37;83.31
5952;BME280;3001;42.622;23.194;2023-04-19T01:27:09;90837.75;;;13.46;82.95
5952;BME280;3001;42.622;23.194;2023-04-19T01:29:38;90842.00;;;13.39;83.51
5952;BME280;3001;42.622;23.194;2023-04-19T01:32:05;90839.09;;;13.28;83.48
5952;BME280;3001;42.622;23.194;2023-04-19T01:34:31;90839.63;;;13.22;84.11
5952;BME280;3001;42.622;23.194;2023-04-19T01:36:58;90837.03;;;13.22;83.84
5952;BME280;3001;42.622;23.194;2023-04-19T01:39:26;90837.78;;;13.34;83.59
5952;BME280;3001;42.622;23.194;2023-04-19T01:41:53;90837.66;;;13.43;83.36
5952;BME280;3001;42.622;23.194;2023-04-19T01:44:20;90830.59;;;13.31;83.85
5952;BME280;3001;42.622;23.194;2023-04-19T01:46:47;90830.69;;;13.35;83.87
5952;BME280;3001;42.622;23.194;2023-04-19T01:49:13;90835.47;;;13.45;83.65
5952;BME280;3001;42.622;23.194;2023-04-19T01:51:40;90826.03;;;13.52;83.11
5952;BME280;3001;42.622;23.194;2023-04-19T01:54:07;90834.16;;;13.51;83.20
5952;BME280;3001;42.622;23.194;2023-04-19T01:56:35;90821.56;;;13.29;83.50
5952;BME280;3001;42.622;23.194;2023-04-19T01:59:01;90827.78;;;13.36;83.92
5952;BME280;3001;42.622;23.194;2023-04-19T02:01:28;90826.13;;;13.44;83.59
5952;BME280;3001;42.622;23.194;2023-04-19T02:03:56;90828.84;;;13.35;83.93
5952;BME280;3001;42.622;23.194;2023-04-19T02:06:22;90836.78;;;13.51;83.50
5952;BME280;3001;42.622;23.194;2023-04-19T02:08:51;90833.66;;;13.33;84.19
5952;BME280;3001;42.622;23.194;2023-04-19T02:11:17;90831.47;;;13.35;84.13
5952;BME280;3001;42.622;23.194;2023-04-19T02:13:45;90830.59;;;13.31;84.12
5952;BME280;3001;42.622;23.194;2023-04-19T02:16:12;90829.59;;;13.48;83.36
5952;BME280;3001;42.622;23.194;2023-04-19T02:18:39;90833.41;;;13.50;83.02
5952;BME280;3001;42.622;23.194;2023-04-19T02:21:07;90833.84;;;13.40;83.49
5952;BME280;3001;42.622;23.194;2023-04-19T02:23:34;90831.78;;;13.34;83.67
5952;BME280;3001;42.622;23.194;2023-04-19T02:26:01;90820.84;;;13.28;84.22
5952;BME280;3001;42.622;23.194;2023-04-19T02:28:28;90829.41;;;13.29;84.25
5952;BME280;3001;42.622;23.194;2023-04-19T02:30:56;90820.06;;;13.28;84.46
5952;BME280;3001;42.622;23.194;2023-04-19T02:33:25;90820.72;;;13.25;84.39
5952;BME280;3001;42.622;23.194;2023-04-19T02:35:53;90827.44;;;13.26;84.52
5952;BME280;3001;42.622;23.194;2023-04-19T02:38:19;90830.25;;;13.45;84.06
5952;BME280;3001;42.622;23.194;2023-04-19T02:40:46;90828.75;;;13.44;83.62
5952;BME280;3001;42.622;23.194;2023-04-19T02:43:13;90827.75;;;13.24;83.96
5952;BME280;3001;42.622;23.194;2023-04-19T02:45:39;90821.69;;;13.20;84.35
5952;BME280;3001;42.622;23.194;2023-04-19T02:48:07;90830.06;;;13.26;84.12
5952;BME280;3001;42.622;23.194;2023-04-19T02:50:36;90826.25;;;13.23;83.87
5952;BME280;3001;42.622;23.194;2023-04-19T02:53:02;90829.84;;;13.43;83.39
5952;BME280;3001;42.622;23.194;2023-04-19T02:55:29;90830.59;;;13.31;83.49
5952;BME280;3001;42.622;23.194;2023-04-19T02:57:56;90826.38;;;13.39;82.73
5952;BME280;3001;42.622;23.194;2023-04-19T03:00:22;90830.94;;;13.42;82.16
5952;BME280;3001;42.622;23.194;2023-04-19T03:02:49;90829.94;;;13.34;82.14
5952;BME280;3001;42.622;23.194;2023-04-19T03:05:17;90827.00;;;13.12;83.38
5952;BME280;3001;42.622;23.194;2023-04-19T03:07:44;90828.00;;;13.19;83.02
5952;BME280;3001;42.622;23.194;2023-04-19T03:10:10;90832.56;;;13.10;82.92
5952;BME280;3001;42.622;23.194;2023-04-19T03:12:37;90825.16;;;13.00;82.73
5952;BME280;3001;42.622;23.194;2023-04-19T03:15:04;90826.59;;;12.98;83.09
5952;BME280;3001;42.622;23.194;2023-04-19T03:17:31;90824.78;;;12.90;83.46
5952;BME280;3001;42.622;23.194;2023-04-19T03:19:58;90826.22;;;12.87;83.88
5952;BME280;3001;42.622;23.194;2023-04-19T03:22:26;90818.34;;;13.20;82.31
5952;BME280;3001;42.622;23.194;2023-04-19T03:24:53;90823.97;;;13.10;82.74
5952;BME280;3001;42.622;23.194;2023-04-19T03:27:20;90821.03;;;12.99;83.02
5952;BME280;3001;42.622;23.194;2023-04-19T03:29:46;90819.28;;;13.03;83.53
5952;BME280;3001;42.622;23.194;2023-04-19T03:32:13;90822.56;;;13.12;83.23
5952;BME280;3001;42.622;23.194;2023-04-19T03:34:40;90828.88;;;13.11;83.00
5952;BME280;3001;42.622;23.194;2023-04-19T03:37:06;90827.25;;;13.19;82.99
5952;BME280;3001;42.622;23.194;2023-04-19T03:39:34;90824.06;;;13.25;83.18
5952;BME280;3001;42.622;23.194;2023-04-19T03:42:01;90823.97;;;12.98;83.29
5952;BME280;3001;42.622;23.194;2023-04-19T03:44:30;90824.06;;;12.89;84.27
5952;BME280;3001;42.622;23.194;2023-04-19T03:46:57;90821.88;;;12.91;83.83
5952;BME280;3001;42.622;23.194;2023-04-19T03:49:24;90821.69;;;13.08;83.12
5952;BME280;3001;42.622;23.194;2023-04-19T03:51:50;90819.41;;;13.07;83.11
5952;BME280;3001;42.622;23.194;2023-04-19T03:54:17;90817.19;;;12.85;83.76
5952;BME280;3001;42.622;23.194;2023-04-19T03:56:46;90823.72;;;12.91;83.92
5952;BME280;3001;42.622;23.194;2023-04-19T03:59:12;90818.53;;;13.15;82.87
5952;BME280;3001;42.622;23.194;2023-04-19T04:01:39;90814.38;;;12.90;83.45
5952;BME280;3001;42.622;23.194;2023-04-19T04:04:07;90818.53;;;13.03;82.83
5952;BME280;3001;42.622;23.194;2023-04-19T04:06:34;90800.88;;;12.64;83.61
5952;BME280;3001;42.622;23.194;2023-04-19T04:09:00;90815.22;;;12.70;84.38
5952;BME280;3001;42.622;23.194;2023-04-19T04:11:27;90816.94;;;12.66;84.68
5952;BME280;3001;42.622;23.194;2023-04-19T04:13:56;90821.41;;;12.77;84.46
5952;BME280;3001;42.622;23.194;2023-04-19T04:16:22;90816.31;;;12.69;84.37
5952;BME280;3001;42.622;23.194;2023-04-19T04:18:49;90816.19;;;12.65;84.54
5952;BME280;3001;42.622;23.194;2023-04-19T04:21:15;90816.31;;;12.69;85.17
5952;BME280;3001;42.622;23.194;2023-04-19T04:23:42;90817.84;;;12.82;85.56
5952;BME280;3001;42.622;23.194;2023-04-19T04:26:09;90816.00;;;12.82;84.95
5952;BME280;3001;42.622;23.194;2023-04-19T04:28:38;90814.03;;;12.79;85.32
5952;BME280;3001;42.622;23.194;2023-04-19T04:31:06;90814.34;;;12.66;85.83
5952;BME280;3001;42.622;23.194;2023-04-19T04:33:34;90822.34;;;12.93;84.87
5952;BME280;3001;42.622;23.194;2023-04-19T04:36:01;90816.91;;;12.98;84.77
5952;BME280;3001;42.622;23.194;2023-04-19T04:38:29;90821.91;;;13.03;84.82
5952;BME280;3001;42.622;23.194;2023-04-19T04:40:56;90823.84;;;13.06;84.52
5952;BME280;3001;42.622;23.194;2023-04-19T04:43:24;90829.50;;;13.20;84.29
5952;BME280;3001;42.622;23.194;2023-04-19T04:45:53;90825.50;;;13.23;84.43
5952;BME280;3001;42.622;23.194;2023-04-19T04:48:23;90831.38;;;13.20;84.52
5952;BME280;3001;42.622;23.194;2023-04-19T04:50:50;90832.31;;;13.27;84.15
5952;BME280;3001;42.622;23.194;2023-04-19T04:53:17;90828.44;;;13.33;83.95
5952;BME280;3001;42.622;23.194;2023-04-19T04:55:44;90839.06;;;13.52;82.68
5952;BME280;3001;42.622;23.194;2023-04-19T04:58:11;90833.19;;;13.43;83.14
5952;BME280;3001;42.622;23.194;2023-04-19T05:00:38;90841.69;;;13.40;83.43
5952;BME280;3001;42.622;23.194;2023-04-19T05:03:04;90842.00;;;13.39;83.07
5952;BME280;3001;42.622;23.194;2023-04-19T05:05:32;90833.63;;;13.45;83.10
5952;BME280;3001;42.622;23.194;2023-04-19T05:07:59;90838.09;;;13.45;83.09
5952;BME280;3001;42.622;23.194;2023-04-19T05:10:26;90838.22;;;13.48;82.80
5952;BME280;3001;42.622;23.194;2023-04-19T05:12:53;90838.63;;;13.50;82.20
5952;BME280;3001;42.622;23.194;2023-04-19T05:15:19;90841.69;;;13.52;82.16
5952;BME280;3001;42.622;23.194;2023-04-19T05:17:46;90842.53;;;13.56;81.74
5952;BME280;3001;42.622;23.194;2023-04-19T05:20:13;90846.31;;;13.71;80.87
5952;BME280;3001;42.622;23.194;2023-04-19T05:22:41;90835.25;;;13.62;80.99
5952;BME280;3001;42.622;23.194;2023-04-19T05:25:08;90844.19;;;13.88;80.46
5952;BME280;3001;42.622;23.194;2023-04-19T05:27:35;90843.47;;;13.87;79.59
5952;BME280;3001;42.622;23.194;2023-04-19T05:30:03;90839.59;;;13.58;81.35
5952;BME280;3001;42.622;23.194;2023-04-19T05:32:30;90846.31;;;13.71;81.59
5952;BME280;3001;42.622;23.194;2023-04-19T05:34:57;90847.53;;;13.61;81.47
5952;BME280;3001;42.622;23.194;2023-04-19T05:37:23;90856.44;;;13.72;80.39
5952;BME280;3001;42.622;23.194;2023-04-19T05:39:51;90847.72;;;13.68;80.24
5952;BME280;3001;42.622;23.194;2023-04-19T05:42:18;90848.06;;;13.67;80.16
5952;BME280;3001;42.622;23.194;2023-04-19T05:44:45;90842.97;;;13.58;81.09
5952;BME280;3001;42.622;23.194;2023-04-19T05:47:11;90851.09;;;13.57;81.42
5952;BME280;3001;42.622;23.194;2023-04-19T05:49:38;90855.78;;;13.63;81.83
5952;BME280;3001;42.622;23.194;2023-04-19T05:52:05;90853.41;;;13.70;81.93
5952;BME280;3001;42.622;23.194;2023-04-19T05:54:31;90855.13;;;13.78;81.88
5952;BME280;3001;42.622;23.194;2023-04-19T05:57:01;90845.50;;;13.94;81.25
5952;BME280;3001;42.622;23.194;2023-04-19T05:59:28;90841.47;;;13.96;81.25
5952;BME280;3001;42.622;23.194;2023-04-19T06:01:55;90847.22;;;14.02;80.71
5952;BME280;3001;42.622;23.194;2023-04-19T06:04:21;90848.28;;;14.13;79.86
5952;BME280;3001;42.622;23.194;2023-04-19T06:06:48;90857.44;;;14.19;79.79
5952;BME280;3001;42.622;23.194;2023-04-19T06:09:14;90859.53;;;14.01;80.37
5952;BME280;3001;42.622;23.194;2023-04-19T06:11:42;90863.78;;;13.94;80.65
5952;BME280;3001;42.622;23.194;2023-04-19T06:14:10;90857.44;;;14.07;80.48
5952;BME280;3001;42.622;23.194;2023-04-19T06:16:37;90862.00;;;14.22;79.37
5952;BME280;3001;42.622;23.194;2023-04-19T06:19:04;90859.78;;;13.84;80.12
5952;BME280;3001;42.622;23.194;2023-04-19T06:21:32;90866.00;;;13.68;81.11
5952;BME280;3001;42.622;23.194;2023-04-19T06:23:59;90859.91;;;13.64;81.51
5952;BME280;3001;42.622;23.194;2023-04-19T06:26:26;90859.25;;;13.67;81.65
5952;BME280;3001;42.622;23.194;2023-04-19T06:28:52;90862.31;;;13.69;81.06
5952;BME280;3001;42.622;23.194;2023-04-19T06:31:20;90866.66;;;13.65;81.34
5952;BME280;3001;42.622;23.194;2023-04-19T06:33:47;90865.78;;;13.73;81.92
5952;BME280;3001;42.622;23.194;2023-04-19T06:36:14;90869.13;;;13.85;81.11
5952;BME280;3001;42.622;23.194;2023-04-19T06:38:40;90875.56;;;13.76;82.07
5952;BME280;3001;42.622;23.194;2023-04-19T06:41:09;90879.22;;;13.99;81.53
5952;BME280;3001;42.622;23.194;2023-04-19T06:43:36;90878.44;;;14.10;80.83
5952;BME280;3001;42.622;23.194;2023-04-19T06:46:03;90868.53;;;14.04;80.60
5952;BME280;3001;42.622;23.194;2023-04-19T06:48:33;90875.81;;;14.22;80.26
5952;BME280;3001;42.622;23.194;2023-04-19T06:51:00;90870.91;;;14.21;79.73
5952;BME280;3001;42.622;23.194;2023-04-19T06:53:26;90875.34;;;14.32;78.78
5952;BME280;3001;42.622;23.194;2023-04-19T06:55:57;90877.13;;;14.16;79.55
5952;BME280;3001;42.622;23.194;2023-04-19T06:58:24;90878.84;;;14.12;79.74
5952;BME280;3001;42.622;23.194;2023-04-19T07:00:51;90879.75;;;14.16;79.10
5952;BME280;3001;42.622;23.194;2023-04-19T07:03:17;90875.72;;;14.07;80.03
5952;BME280;3001;42.622;23.194;2023-04-19T07:05:46;90882.34;;;14.16;78.97
5952;BME280;3001;42.622;23.194;2023-04-19T07:08:12;90880.38;;;14.25;79.19
5952;BME280;3001;42.622;23.194;2023-04-19T07:10:39;90881.78;;;14.23;80.25
5952;BME280;3001;42.622;23.194;2023-04-19T07:13:08;90883.13;;;14.17;80.24
5952;BME280;3001;42.622;23.194;2023-04-19T07:15:34;90887.16;;;14.02;80.51
5952;BME280;3001;42.622;23.194;2023-04-19T07:18:01;90887.03;;;14.11;80.06
5952;BME280;3001;42.622;23.194;2023-04-19T07:20:28;90878.75;;;14.09;80.98
5952;BME280;3001;42.622;23.194;2023-04-19T07:22:57;90884.97;;;14.16;80.99
5952;BME280;3001;42.622;23.194;2023-04-19T07:25:24;90887.06;;;14.38;79.26
5952;BME280;3001;42.622;23.194;2023-04-19T07:27:51;90885.22;;;14.39;79.46
5952;BME280;3001;42.622;23.194;2023-04-19T07:30:19;90888.41;;;14.32;79.70
5952;BME280;3001;42.622;23.194;2023-04-19T07:32:45;90888.44;;;14.48;79.75
5952;BME280;3001;42.622;23.194;2023-04-19T07:35:12;90884.09;;;14.52;79.97
5952;BME280;3001;42.622;23.194;2023-04-19T07:37:39;90888.97;;;14.53;79.75
5952;BME280;3001;42.622;23.194;2023-04-19T07:40:08;90892.78;;;14.83;79.64
5952;BME280;3001;42.622;23.194;2023-04-19T07:42:35;90883.16;;;14.87;79.67
5952;BME280;3001;42.622;23.194;2023-04-19T07:45:02;90890.50;;;14.82;78.82
5952;BME280;3001;42.622;23.194;2023-04-19T07:47:30;90888.66;;;14.82;76.97
5952;BME280;3001;42.622;23.194;2023-04-19T07:49:56;90893.63;;;15.03;76.46
5952;BME280;3001;42.622;23.194;2023-04-19T07:52:23;90892.28;;;14.93;76.50
5952;BME280;3001;42.622;23.194;2023-04-19T07:54:50;90893.06;;;14.94;77.04
5952;BME280;3001;42.622;23.194;2023-04-19T07:57:18;90890.34;;;14.90;77.90
5952;BME280;3001;42.622;23.194;2023-04-19T07:59:45;90893.28;;;14.89;76.45
5952;BME280;3001;42.622;23.194;2023-04-19T08:02:11;90900.53;;;14.80;77.92
5952;BME280;3001;42.622;23.194;2023-04-19T08:04:38;90897.41;;;14.90;78.06
5952;BME280;3001;42.622;23.194;2023-04-19T08:07:05;90894.88;;;14.93;76.81
5952;BME280;3001;42.622;23.194;2023-04-19T08:09:33;90903.09;;;14.92;76.00
5952;BME280;3001;42.622;23.194;2023-04-19T08:12:02;90897.41;;;14.90;78.08
5952;BME280;3001;42.622;23.194;2023-04-19T08:14:30;90895.16;;;15.19;76.42
5952;BME280;3001;42.622;23.194;2023-04-19T08:16:57;90893.69;;;15.34;76.38
5952;BME280;3001;42.622;23.194;2023-04-19T08:19:23;90892.38;;;15.28;75.31
5952;BME280;3001;42.622;23.194;2023-04-19T08:21:50;90882.03;;;15.31;76.83
5952;BME280;3001;42.622;23.194;2023-04-19T08:24:16;90889.28;;;15.22;77.22
5952;BME280;3001;42.622;23.194;2023-04-19T08:26:43;90892.00;;;15.41;76.43
5952;BME280;3001;42.622;23.194;2023-04-19T08:29:17;90890.91;;;15.42;75.85
5952;BME280;3001;42.622;23.194;2023-04-19T08:31:45;90896.91;;;15.43;74.94
5952;BME280;3001;42.622;23.194;2023-04-19T08:34:12;90891.75;;;15.46;75.83
5952;BME280;3001;42.622;23.194;2023-04-19T08:36:39;90889.38;;;15.41;76.37
5952;BME280;3001;42.622;23.194;2023-04-19T08:39:05;90887.25;;;15.47;77.13
5952;BME280;3001;42.622;23.194;2023-04-19T08:41:33;90885.50;;;15.51;77.42
5952;BME280;3001;42.622;23.194;2023-04-19T08:44:02;90891.31;;;15.60;77.20
5952;BME280;3001;42.622;23.194;2023-04-19T08:46:29;90879.91;;;15.67;77.38
5952;BME280;3001;42.622;23.194;2023-04-19T08:48:59;90883.69;;;15.85;75.71
5952;BME280;3001;42.622;23.194;2023-04-19T08:51:27;90886.38;;;15.89;74.87
5952;BME280;3001;42.622;23.194;2023-04-19T08:53:55;90890.06;;;16.03;75.08
5952;BME280;3001;42.622;23.194;2023-04-19T08:56:23;90879.94;;;16.21;74.64
5952;BME280;3001;42.622;23.194;2023-04-19T08:58:50;90870.03;;;16.30;75.38
5952;BME280;3001;42.622;23.194;2023-04-19T09:01:17;90876.66;;;16.43;74.59
5952;BME280;3001;42.622;23.194;2023-04-19T09:03:44;90877.44;;;16.43;72.51
5952;BME280;3001;42.622;23.194;2023-04-19T09:06:12;90876.22;;;16.37;72.56
5952;BME280;3001;42.622;23.194;2023-04-19T09:08:39;90870.28;;;16.59;71.44
5952;BME280;3001;42.622;23.194;2023-04-19T09:11:06;90882.97;;;16.76;69.37
5952;BME280;3001;42.622;23.194;2023-04-19T09:13:33;90876.72;;;16.84;72.90
5952;BME280;3001;42.622;23.194;2023-04-19T09:16:03;90876.53;;;17.15;72.27
5952;BME280;3001;42.622;23.194;2023-04-19T09:18:30;90868.78;;;17.22;71.61
5952;BME280;3001;42.622;23.194;2023-04-19T09:20:56;90866.16;;;17.22;70.61
5952;BME280;3001;42.622;23.194;2023-04-19T09:23:26;90870.63;;;17.41;69.78
5952;BME280;3001;42.622;23.194;2023-04-19T09:25:57;90870.59;;;17.18;68.50
5952;BME280;3001;42.622;23.194;2023-04-19T09:28:25;90873.53;;;17.36;69.81
5952;BME280;3001;42.622;23.194;2023-04-19T09:30:52;90870.75;;;17.48;69.54
5952;BME280;3001;42.622;23.194;2023-04-19T09:33:34;90874.13;;;17.48;69.11
5952;BME280;3001;42.622;23.194;2023-04-19T09:36:04;90868.44;;;17.68;69.35
5952;BME280;3001;42.622;23.194;2023-04-19T09:38:45;90865.81;;;17.68;68.37
5952;BME280;3001;42.622;23.194;2023-04-19T09:41:12;90873.75;;;17.72;67.95
5952;BME280;3001;42.622;23.194;2023-04-19T09:43:38;90867.75;;;17.71;67.30
5952;BME280;3001;42.622;23.194;2023-04-19T09:46:05;90865.56;;;17.77;68.42
5952;BME280;3001;42.622;23.194;2023-04-19T09:48:32;90867.94;;;18.11;69.33
5952;BME280;3001;42.622;23.194;2023-04-19T09:51:00;90860.00;;;18.34;68.55
5952;BME280;3001;42.622;23.194;2023-04-19T09:53:29;90870.50;;;18.63;64.97
5952;BME280;3001;42.622;23.194;2023-04-19T09:56:00;90854.38;;;19.01;66.39
5952;BME280;3001;42.622;23.194;2023-04-19T09:58:26;90867.06;;;19.25;63.63
5952;BME280;3001;42.622;23.194;2023-04-19T10:00:54;90854.28;;;19.70;62.28
5952;BME280;3001;42.622;23.194;2023-04-19T10:03:24;90859.44;;;20.03;62.64
5952;BME280;3001;42.622;23.194;2023-04-19T10:05:54;90849.44;;;19.76;62.02
5952;BME280;3001;42.622;23.194;2023-04-19T10:08:22;90866.44;;;19.89;60.50
5952;BME280;3001;42.622;23.194;2023-04-19T10:10:50;90865.47;;;20.04;58.35
5952;BME280;3001;42.622;23.194;2023-04-19T10:13:21;90864.06;;;19.70;60.27
5952;BME280;3001;42.622;23.194;2023-04-19T10:15:48;90865.16;;;19.65;59.62
5952;BME280;3001;42.622;23.194;2023-04-19T10:18:15;90854.75;;;19.39;59.11
5952;BME280;3001;42.622;23.194;2023-04-19T10:20:48;90859.97;;;19.32;59.92
5952;BME280;3001;42.622;23.194;2023-04-19T10:23:16;90860.75;;;19.33;60.13
5952;BME280;3001;42.622;23.194;2023-04-19T10:25:45;90853.88;;;19.25;60.85
5952;BME280;3001;42.622;23.194;2023-04-19T10:28:12;90850.53;;;19.28;61.20
5952;BME280;3001;42.622;23.194;2023-04-19T10:30:53;90855.91;;;19.42;60.57
5952;BME280;3001;42.622;23.194;2023-04-19T10:33:24;90851.00;;;19.37;60.23
5952;BME280;3001;42.622;23.194;2023-04-19T10:35:54;90853.97;;;19.35;60.84
5952;BME280;3001;42.622;23.194;2023-04-19T10:38:35;90844.41;;;19.17;60.79
5952;BME280;3001;42.622;23.194;2023-04-19T10:41:02;90843.34;;;19.22;59.26
5952;BME280;3001;42.622;23.194;2023-04-19T10:43:30;90848.78;;;19.06;58.88
5952;BME280;3001;42.622;23.194;2023-04-19T10:46:01;90849.16;;;19.05;59.09
5952;BME280;3001;42.622;23.194;2023-04-19T10:48:36;90849.13;;;19.01;57.59
5952;BME280;3001;42.622;23.194;2023-04-19T10:51:09;90851.19;;;18.85;57.06
5952;BME280;3001;42.622;23.194;2023-04-19T10:53:45;90847.56;;;18.97;56.28
5952;BME280;3001;42.622;23.194;2023-04-19T10:56:13;90840.81;;;18.99;58.93
5952;BME280;3001;42.622;23.194;2023-04-19T10:59:10;90845.31;;;18.95;57.49
5952;BME280;3001;42.622;23.194;2023-04-19T11:01:42;90833.69;;;19.00;57.93
5952;BME280;3001;42.622;23.194;2023-04-19T11:04:09;90844.91;;;18.93;60.50
5952;BME280;3001;42.622;23.194;2023-04-19T11:06:37;90840.97;;;19.56;60.44
5952;BME280;3001;42.622;23.194;2023-04-19T11:09:04;90846.59;;;19.51;59.50
5952;BME280;3001;42.622;23.194;2023-04-19T11:11:34;90839.09;;;20.04;58.96
5952;BME280;3001;42.622;23.194;2023-04-19T11:14:02;90844.38;;;20.04;54.79
5952;BME280;3001;42.622;23.194;2023-04-19T11:16:29;90845.53;;;20.06;54.46
5952;BME280;3001;42.622;23.194;2023-04-19T11:18:57;90837.94;;;20.01;53.65
5952;BME280;3001;42.622;23.194;2023-04-19T11:21:24;90837.72;;;20.27;56.07
5952;BME280;3001;42.622;23.194;2023-04-19T11:24:05;90832.25;;;20.71;57.00
5952;BME280;3001;42.622;23.194;2023-04-19T11:26:32;90833.78;;;20.82;53.86
5952;BME280;3001;42.622;23.194;2023-04-19T11:28:59;90833.00;;;20.64;54.92
5952;BME280;3001;42.622;23.194;2023-04-19T11:31:26;90835.66;;;20.64;54.54
5952;BME280;3001;42.622;23.194;2023-04-19T11:33:53;90829.91;;;20.52;54.13
5952;BME280;3001;42.622;23.194;2023-04-19T11:36:21;90828.47;;;20.72;55.42
5952;BME280;3001;42.622;23.194;2023-04-19T11:38:48;90830.47;;;20.85;54.92
5952;BME280;3001;42.622;23.194;2023-04-19T11:41:14;90830.09;;;20.90;52.60
5952;BME280;3001;42.622;23.194;2023-04-19T11:43:41;90825.88;;;20.79;53.92
5952;BME280;3001;42.622;23.194;2023-04-19T11:46:10;90832.63;;;20.66;52.77
5952;BME280;3001;42.622;23.194;2023-04-19T11:48:37;90826.63;;;20.72;52.07
5952;BME280;3001;42.622;23.194;2023-04-19T11:51:05;90825.00;;;20.43;51.41
5952;BME280;3001;42.622;23.194;2023-04-19T11:53:33;90829.59;;;20.64;52.68
5952;BME280;3001;42.622;23.194;2023-04-19T11:56:04;90828.44;;;20.54;53.32
5952;BME280;3001;42.622;23.194;2023-04-19T11:58:32;90827.28;;;20.52;52.58
5952;BME280;3001;42.622;23.194;2023-04-19T12:01:06;90821.22;;;20.48;53.00
5952;BME280;3001;42.622;23.194;2023-04-19T12:03:33;90828.09;;;20.63;52.71
5952;BME280;3001;42.622;23.194;2023-04-19T12:06:01;90830.50;;;20.96;51.78
5952;BME280;3001;42.622;23.194;2023-04-19T12:08:30;90821.41;;;20.86;50.70
5952;BME280;3001;42.622;23.194;2023-04-19T12:10:59;90824.34;;;20.74;49.09
5952;BME280;3001;42.622;23.194;2023-04-19T12:13:27;90818.72;;;20.79;47.40
5952;BME280;3001;42.622;23.194;2023-04-19T12:15:55;90815.38;;;20.93;48.57
5952;BME280;3001;42.622;23.194;2023-04-19T12:18:22;90815.06;;;21.18;45.95
5952;BME280;3001;42.622;23.194;2023-04-19T12:20:50;90802.63;;;21.40;47.52
5952;BME280;3001;42.622;23.194;2023-04-19T12:23:18;90810.56;;;21.40;46.53
5952;BME280;3001;42.622;23.194;2023-04-19T12:25:47;90817.34;;;21.30;48.09
5952;BME280;3001;42.622;23.194;2023-04-19T12:28:15;90814.69;;;21.23;49.62
5952;BME280;3001;42.622;23.194;2023-04-19T12:30:42;90813.53;;;21.14;49.33
5952;BME280;3001;42.622;23.194;2023-04-19T12:33:09;90815.78;;;20.98;49.70
5952;BME280;3001;42.622;23.194;2023-04-19T12:35:35;90816.88;;;20.83;48.72
5952;BME280;3001;42.622;23.194;2023-04-19T12:38:03;90816.06;;;20.76;50.63
5952;BME280;3001;42.622;23.194;2023-04-19T12:40:30;90817.19;;;20.71;50.19
5952;BME280;3001;42.622;23.194;2023-04-19T12:42:56;90811.75;;;20.33;51.58
5952;BME280;3001;42.622;23.194;2023-04-19T12:45:24;90807.94;;;20.27;51.79
5952;BME280;3001;42.622;23.194;2023-04-19T12:47:51;90819.25;;;20.24;51.51
5952;BME280;3001;42.622;23.194;2023-04-19T12:50:18;90813.84;;;20.03;52.12
5952;BME280;3001;42.622;23.194;2023-04-19T12:52:44;90811.56;;;20.01;52.96
5952;BME280;3001;42.622;23.194;2023-04-19T12:55:11;90818.03;;;20.07;53.14
5952;BME280;3001;42.622;23.194;2023-04-19T12:57:38;90812.03;;;20.17;52.57
5952;BME280;3001;42.622;23.194;2023-04-19T13:00:05;90821.09;;;20.20;50.11
5952;BME280;3001;42.622;23.194;2023-04-19T13:02:35;90820.38;;;20.23;50.36
5952;BME280;3001;42.622;23.194;2023-04-19T13:05:02;90802.69;;;20.23;50.55
5952;BME280;3001;42.622;23.194;2023-04-19T13:07:30;90813.91;;;20.13;51.43
5952;BME280;3001;42.622;23.194;2023-04-19T13:09:57;90812.75;;;20.11;51.74
5952;BME280;3001;42.622;23.194;2023-04-19T13:12:24;90811.66;;;20.12;52.22